Time;durP1;ratioP1;P1;durP2;ratioP2;P2;SDS_P1;SDS_P2;PMS_P1;PMS_P2;Temp;Humidity;BMP_temperature;BMP_pressure;BME280_temperature;BME280_humidity;BME280_pressure;Samples;Min_cycle;Max_cycle;Signal;HPM_P1;HPM_P2
2024/01/28 00:01:41;;;;;;;14.53;10.23;;;2.60;99.90;;;;;;5021908;28;20211;-81
2024/01/28 00:04:08;;;;;;;15.38;11.23;;;2.40;99.90;;;;;;5022740;28;20450;-81
2024/01/28 00:06:34;;;;;;;15.70;10.55;;;3.50;99.90;;;;;;5021565;28;20184;-82
2024/01/28 00:09:00;;;;;;;10.87;9.77;;;2.90;99.90;;;;;;5038656;28;20194;-81
2024/01/28 00:11:25;;;;;;;13.53;10.90;;;2.20;99.90;;;;;;5022738;28;20197;-81
2024/01/28 00:13:51;;;;;;;15.30;10.40;;;2.50;99.90;;;;;;5051404;28;20592;-83
2024/01/28 00:16:17;;;;;;;15.40;9.90;;;2.50;99.90;;;;;;5024064;28;20231;-81
2024/01/28 00:18:43;;;;;;;11.93;9.57;;;2.30;99.90;;;;;;5033988;28;20187;-82
2024/01/28 00:21:09;;;;;;;12.87;11.47;;;2.90;99.90;;;;;;5030046;28;20209;-81
2024/01/28 00:23:35;;;;;;;16.07;11.03;;;2.50;99.90;;;;;;5028512;28;20453;-82
2024/01/28 00:26:02;;;;;;;13.38;11.68;;;2.60;99.90;;;;;;5027204;28;20209;-81
2024/01/28 00:28:28;;;;;;;15.88;10.55;;;2.70;99.90;;;;;;5021546;28;20210;-82
2024/01/28 00:30:54;;;;;;;13.40;10.05;;;2.10;99.90;;;;;;5030051;28;20262;-82
2024/01/28 00:33:19;;;;;;;16.20;10.07;;;2.30;99.90;;;;;;5031398;28;20215;-82
2024/01/28 00:35:45;;;;;;;14.40;9.53;;;2.20;99.90;;;;;;5019430;28;20234;-82
2024/01/28 00:38:11;;;;;;;14.50;10.50;;;2.60;99.90;;;;;;5021716;28;20191;-81
2024/01/28 00:40:36;;;;;;;9.63;8.63;;;1.80;99.90;;;;;;5034707;28;20617;-81
2024/01/28 00:43:03;;;;;;;11.40;9.10;;;1.90;99.90;;;;;;5020273;28;20208;-82
2024/01/28 00:45:29;;;;;;;19.95;10.40;;;2.00;99.90;;;;;;5019430;28;20541;-82
2024/01/28 00:47:55;;;;;;;10.32;7.93;;;2.20;99.90;;;;;;5056326;28;20182;-82
2024/01/28 00:50:20;;;;;;;11.17;9.00;;;2.10;99.90;;;;;;5020445;28;20208;-81
2024/01/28 00:52:46;;;;;;;11.60;8.70;;;2.00;99.90;;;;;;5021888;28;20182;-81
2024/01/28 00:55:12;;;;;;;10.47;8.87;;;2.40;99.90;;;;;;5043244;28;20270;-82
2024/01/28 00:57:37;;;;;;;11.50;8.87;;;2.20;99.90;;;;;;5015891;28;20221;-81
2024/01/28 01:00:04;;;;;;;12.47;9.70;;;2.50;99.90;;;;;;5013436;28;20462;-81
2024/01/28 01:02:30;;;;;;;11.63;9.13;;;2.00;99.90;;;;;;5025021;28;20190;-81
2024/01/28 01:04:55;;;;;;;13.93;8.80;;;2.10;99.90;;;;;;5021498;28;20226;-82
2024/01/28 01:07:21;;;;;;;9.90;8.33;;;2.10;99.90;;;;;;5018408;28;20236;-81
2024/01/28 01:09:46;;;;;;;12.90;10.10;;;1.90;99.90;;;;;;5020972;28;20215;-81
2024/01/28 01:12:12;;;;;;;10.00;8.20;;;1.80;99.90;;;;;;5013553;28;20195;-81
2024/01/28 01:14:37;;;;;;;9.97;8.07;;;1.90;99.90;;;;;;5024993;28;20219;-81
2024/01/28 01:17:06;;;;;;;13.97;8.67;;;1.90;99.90;;;;;;5044939;28;20192;-81
2024/01/28 01:19:32;;;;;;;11.80;8.27;;;1.90;99.90;;;;;;5029806;28;20613;-82
2024/01/28 01:22:00;;;;;;;10.43;8.13;;;1.80;99.90;;;;;;5028093;28;20217;-81
2024/01/28 01:24:25;;;;;;;15.43;8.73;;;1.70;99.90;;;;;;5032974;28;20202;-81
2024/01/28 01:26:51;;;;;;;9.60;8.50;;;1.80;99.90;;;;;;5023896;28;20270;-82
2024/01/28 01:29:17;;;;;;;9.67;8.60;;;1.60;99.90;;;;;;5020427;28;20193;-82
2024/01/28 01:31:42;;;;;;;11.97;8.07;;;1.80;99.90;;;;;;5019397;28;20514;-82
2024/01/28 01:34:08;;;;;;;10.70;8.50;;;1.60;99.90;;;;;;5025350;28;20449;-82
2024/01/28 01:36:33;;;;;;;10.50;7.40;;;1.60;99.90;;;;;;5029926;28;20228;-81
2024/01/28 01:38:59;;;;;;;9.70;7.83;;;1.60;99.90;;;;;;5028244;28;20289;-82
2024/01/28 01:41:25;;;;;;;10.17;9.07;;;1.70;99.90;;;;;;5024412;28;20723;-82
2024/01/28 01:43:52;;;;;;;11.07;8.90;;;1.60;99.90;;;;;;5021686;28;20183;-81
2024/01/28 01:46:17;;;;;;;15.05;8.30;;;1.70;99.90;;;;;;5026096;28;20206;-82
2024/01/28 01:48:43;;;;;;;12.10;8.63;;;1.60;99.90;;;;;;5024769;28;20189;-81
2024/01/28 01:51:11;;;;;;;11.90;7.60;;;1.90;99.90;;;;;;5019282;28;20174;-81
2024/01/28 01:53:37;;;;;;;11.50;7.60;;;1.70;99.90;;;;;;5051309;28;20273;-81
2024/01/28 01:56:03;;;;;;;11.90;8.15;;;1.20;99.90;;;;;;5036574;28;20306;-83
2024/01/28 01:58:30;;;;;;;9.33;7.70;;;2.00;99.90;;;;;;5018772;28;20258;-81
2024/01/28 02:00:55;;;;;;;8.48;7.57;;;2.00;99.90;;;;;;5029011;28;20483;-81
2024/01/28 02:03:21;;;;;;;11.47;8.07;;;1.50;99.90;;;;;;5026789;28;20652;-81
2024/01/28 02:05:46;;;;;;;9.57;7.27;;;1.60;99.90;;;;;;5028400;28;20458;-81
2024/01/28 02:08:12;;;;;;;10.70;8.20;;;1.70;99.90;;;;;;5027914;28;20187;-81
2024/01/28 02:10:38;;;;;;;9.07;7.10;;;1.50;99.90;;;;;;5019835;28;20265;-81
2024/01/28 02:13:03;;;;;;;10.67;7.90;;;2.00;99.90;;;;;;5020861;28;20194;-81
2024/01/28 02:15:36;;;;;;;13.90;7.77;;;1.60;99.90;;;;;;5020215;28;20214;-81
2024/01/28 02:18:02;;;;;;;9.70;7.65;;;1.80;99.90;;;;;;5017027;28;20655;-81
2024/01/28 02:20:27;;;;;;;9.30;8.10;;;1.40;99.90;;;;;;5035898;28;20310;-81
2024/01/28 02:22:53;;;;;;;8.70;7.30;;;1.60;99.90;;;;;;5016195;28;20199;-81
2024/01/28 02:25:18;;;;;;;8.20;7.40;;;1.30;99.90;;;;;;5031568;28;20230;-81
2024/01/28 02:27:46;;;;;;;11.13;8.17;;;1.40;99.90;;;;;;5020957;28;20190;-81
2024/01/28 02:30:12;;;;;;;9.98;8.30;;;1.40;99.90;;;;;;5017477;28;20631;-81
2024/01/28 02:32:49;;;;;;;9.98;7.28;;;1.60;99.90;;;;;;5052457;28;20205;-81
2024/01/28 02:35:16;;;;;;;9.90;7.00;;;1.40;99.90;;;;;;5013373;28;20210;-81
2024/01/28 02:37:42;;;;;;;14.05;7.90;;;1.60;99.90;;;;;;5018851;28;20199;-81
2024/01/28 02:40:08;;;;;;;7.57;6.07;;;1.60;99.90;;;;;;5052229;28;20210;-81
2024/01/28 02:42:34;;;;;;;8.77;7.03;;;1.80;99.90;;;;;;5027626;28;20445;-81
2024/01/28 02:45:00;;;;;;;10.93;7.00;;;1.40;99.90;;;;;;5013792;28;20229;-81
2024/01/28 02:47:27;;;;;;;11.40;7.83;;;1.90;99.90;;;;;;5038439;28;20445;-83
2024/01/28 02:49:52;;;;;;;10.80;7.38;;;1.50;99.90;;;;;;5034416;28;20213;-81
2024/01/28 02:52:18;;;;;;;9.80;7.83;;;1.40;99.90;;;;;;5023413;28;20183;-81
2024/01/28 02:54:43;;;;;;;9.97;7.77;;;1.40;99.90;;;;;;5017028;28;20232;-81
2024/01/28 02:57:09;;;;;;;10.23;7.67;;;1.10;99.90;;;;;;5017857;28;20190;-81
2024/01/28 02:59:34;;;;;;;9.73;7.80;;;1.20;99.90;;;;;;5035267;28;20582;-81
2024/01/28 03:02:00;;;;;;;8.53;7.50;;;1.30;99.90;;;;;;5024469;28;20212;-81
2024/01/28 03:04:25;;;;;;;10.17;7.87;;;1.30;99.90;;;;;;5013899;28;20205;-80
2024/01/28 03:06:51;;;;;;;9.27;6.90;;;1.30;99.90;;;;;;5021129;28;20181;-81
2024/01/28 03:09:18;;;;;;;8.70;6.93;;;1.40;99.90;;;;;;5016217;28;20183;-81
2024/01/28 03:11:44;;;;;;;10.15;7.22;;;1.10;99.90;;;;;;5014262;28;20353;-81
2024/01/28 03:14:10;;;;;;;8.93;8.00;;;1.50;99.90;;;;;;5022465;28;20222;-81
2024/01/28 03:16:36;;;;;;;10.10;7.55;;;1.40;99.90;;;;;;5036113;28;20468;-81
2024/01/28 03:19:02;;;;;;;12.53;8.10;;;1.30;99.90;;;;;;5019601;28;20556;-81
2024/01/28 03:21:27;;;;;;;8.80;6.97;;;1.40;99.90;;;;;;5024602;28;20225;-81
2024/01/28 03:23:53;;;;;;;8.67;7.67;;;1.50;99.90;;;;;;5038234;28;20453;-81
2024/01/28 03:26:19;;;;;;;9.23;7.07;;;1.30;99.90;;;;;;5022483;28;20264;-81
2024/01/28 03:28:45;;;;;;;10.80;7.17;;;1.20;99.90;;;;;;5026250;28;20190;-81
2024/01/28 03:31:10;;;;;;;10.97;8.07;;;1.40;99.90;;;;;;5061893;28;20205;-82
2024/01/28 03:33:36;;;;;;;9.70;7.30;;;1.30;99.90;;;;;;5021896;28;20476;-81
2024/01/28 03:36:01;;;;;;;9.33;7.20;;;1.30;99.90;;;;;;5037350;28;20242;-81
2024/01/28 03:38:27;;;;;;;8.60;7.43;;;1.10;99.90;;;;;;5022481;28;20187;-81
2024/01/28 03:40:52;;;;;;;9.30;8.10;;;1.20;99.90;;;;;;5014948;28;20218;-81
2024/01/28 03:43:18;;;;;;;11.43;8.10;;;1.00;99.90;;;;;;5040459;28;20198;-82
2024/01/28 03:45:43;;;;;;;10.40;8.10;;;1.10;99.90;;;;;;5034040;28;20221;-83
2024/01/28 03:48:09;;;;;;;8.83;6.60;;;1.30;99.90;;;;;;5024915;28;20191;-81
2024/01/28 03:50:34;;;;;;;12.07;8.40;;;1.10;99.90;;;;;;5023264;28;20289;-81
2024/01/28 03:53:00;;;;;;;11.67;7.17;;;1.10;99.90;;;;;;5026805;28;20187;-83
2024/01/28 03:55:25;;;;;;;10.53;8.53;;;1.30;99.90;;;;;;5061905;28;20206;-82
2024/01/28 03:57:51;;;;;;;10.90;7.90;;;1.10;99.90;;;;;;5026673;28;20205;-82
2024/01/28 04:00:18;;;;;;;8.60;7.47;;;1.20;99.90;;;;;;5048267;28;20202;-82
2024/01/28 04:02:44;;;;;;;9.82;7.90;;;1.10;99.90;;;;;;5028449;28;20193;-82
2024/01/28 04:05:10;;;;;;;14.57;7.43;;;0.90;99.90;;;;;;5027552;28;20707;-81
2024/01/28 04:07:36;;;;;;;10.03;8.10;;;0.90;99.90;;;;;;5055295;28;20201;-82
2024/01/28 04:10:01;;;;;;;11.45;8.50;;;0.90;99.90;;;;;;5027506;28;20197;-82
2024/01/28 04:12:27;;;;;;;11.90;8.50;;;1.00;99.90;;;;;;5030715;28;20277;-82
2024/01/28 04:14:52;;;;;;;8.93;7.80;;;1.10;99.90;;;;;;5026665;28;20212;-82
2024/01/28 04:17:18;;;;;;;9.97;7.53;;;1.20;99.90;;;;;;5028283;28;20186;-82
2024/01/28 04:19:44;;;;;;;12.23;8.00;;;1.20;99.90;;;;;;5025211;28;20241;-83
2024/01/28 04:22:12;;;;;;;9.60;8.00;;;1.10;99.90;;;;;;5033424;28;20592;-83
2024/01/28 04:24:38;;;;;;;11.73;8.50;;;1.10;99.90;;;;;;5028012;28;20197;-83
2024/01/28 04:27:03;;;;;;;13.80;8.50;;;0.90;99.90;;;;;;5022568;28;20195;-83
2024/01/28 04:29:29;;;;;;;11.17;7.90;;;0.90;99.90;;;;;;5022888;28;20198;-83
2024/01/28 04:31:55;;;;;;;10.30;7.47;;;0.70;99.90;;;;;;5024925;28;20286;-83
2024/01/28 04:34:22;;;;;;;14.70;9.43;;;0.90;99.90;;;;;;5044328;28;20187;-83
2024/01/28 04:36:47;;;;;;;11.45;8.30;;;1.10;99.90;;;;;;5026388;28;20206;-83
2024/01/28 04:39:13;;;;;;;11.10;7.80;;;1.70;99.90;;;;;;5028921;28;20221;-83
2024/01/28 04:41:39;;;;;;;10.32;9.23;;;0.70;99.90;;;;;;5026017;28;20252;-83
2024/01/28 04:44:05;;;;;;;14.33;8.00;;;1.20;99.90;;;;;;5030634;28;20190;-83
2024/01/28 04:46:31;;;;;;;10.40;8.33;;;1.00;99.90;;;;;;5039374;28;20257;-83
2024/01/28 04:48:57;;;;;;;14.27;7.83;;;0.90;99.90;;;;;;5034712;28;20503;-83
2024/01/28 04:51:23;;;;;;;9.10;8.18;;;0.70;99.90;;;;;;5035779;28;20488;-83
2024/01/28 04:53:48;;;;;;;10.60;7.60;;;0.30;99.90;;;;;;5027288;28;20190;-83
2024/01/28 04:56:14;;;;;;;9.10;8.17;;;1.10;99.90;;;;;;5029319;28;20233;-83
2024/01/28 04:58:39;;;;;;;10.90;8.10;;;1.10;99.90;;;;;;5029968;28;20521;-83
2024/01/28 05:01:05;;;;;;;11.23;7.30;;;1.10;99.90;;;;;;5031374;28;20236;-83
2024/01/28 05:03:31;;;;;;;10.80;8.50;;;0.90;99.90;;;;;;5033972;28;20178;-83
2024/01/28 05:05:56;;;;;;;12.63;8.50;;;1.30;99.90;;;;;;5044131;28;20789;-83
2024/01/28 05:08:22;;;;;;;13.50;9.10;;;0.80;99.90;;;;;;5035828;28;20203;-83
2024/01/28 05:10:48;;;;;;;11.30;8.00;;;0.70;99.90;;;;;;5029701;28;20187;-83
2024/01/28 05:13:14;;;;;;;10.77;9.00;;;0.70;99.90;;;;;;5023706;28;20257;-83
2024/01/28 05:15:40;;;;;;;12.88;8.50;;;1.30;99.90;;;;;;5028730;28;20273;-84
2024/01/28 05:18:06;;;;;;;9.10;7.90;;;0.90;99.90;;;;;;5025261;28;20206;-85
2024/01/28 05:20:31;;;;;;;8.63;7.53;;;0.80;99.90;;;;;;5022230;28;20468;-84
2024/01/28 05:22:59;;;;;;;9.83;8.00;;;1.10;99.90;;;;;;5026304;28;20194;-83
2024/01/28 05:25:26;;;;;;;11.50;8.23;;;1.10;99.90;;;;;;5033447;28;20195;-83
2024/01/28 05:27:51;;;;;;;11.80;8.43;;;1.00;99.90;;;;;;5017925;28;20187;-83
2024/01/28 05:30:17;;;;;;;10.43;7.73;;;1.00;99.90;;;;;;5029475;28;20269;-83
2024/01/28 05:32:43;;;;;;;10.13;7.30;;;1.10;99.90;;;;;;5031988;28;20279;-82
2024/01/28 05:35:08;;;;;;;10.43;7.70;;;1.40;99.90;;;;;;5048768;28;20205;-83
2024/01/28 05:37:36;;;;;;;11.00;8.47;;;1.00;99.90;;;;;;5032537;28;20455;-83
2024/01/28 05:40:02;;;;;;;9.57;8.25;;;1.00;99.90;;;;;;5031939;28;20210;-83
2024/01/28 05:42:28;;;;;;;11.38;7.50;;;0.90;99.90;;;;;;5028683;28;20194;-83
2024/01/28 05:44:53;;;;;;;8.67;7.70;;;0.70;99.90;;;;;;5027525;28;20201;-83
2024/01/28 05:47:19;;;;;;;10.13;7.80;;;1.30;99.90;;;;;;5027622;28;20290;-83
2024/01/28 05:49:44;;;;;;;11.70;7.90;;;0.60;99.90;;;;;;5032784;28;20207;-83
2024/01/28 05:52:10;;;;;;;11.57;7.67;;;0.10;99.90;;;;;;5039543;28;20175;-83
2024/01/28 05:54:41;;;;;;;9.90;8.03;;;0.70;99.90;;;;;;5034462;28;20297;-83
2024/01/28 05:57:07;;;;;;;12.35;8.88;;;0.70;99.90;;;;;;5033175;28;20182;-83
2024/01/28 05:59:33;;;;;;;11.35;8.05;;;0.80;99.90;;;;;;5036797;28;20202;-83
2024/01/28 06:01:58;;;;;;;9.13;8.23;;;1.20;99.90;;;;;;5033433;28;20196;-83
2024/01/28 06:04:24;;;;;;;8.93;7.70;;;0.60;99.90;;;;;;5029595;28;20618;-83
2024/01/28 06:06:49;;;;;;;11.07;8.43;;;1.10;99.90;;;;;;5025182;28;20183;-83
2024/01/28 06:09:15;;;;;;;12.13;8.57;;;0.90;99.90;;;;;;5034517;28;20179;-83
2024/01/28 06:11:43;;;;;;;12.43;9.00;;;0.90;99.90;;;;;;5031117;28;20197;-83
2024/01/28 06:14:10;;;;;;;10.93;9.23;;;0.90;99.90;;;;;;5014410;28;20445;-83
2024/01/28 06:16:35;;;;;;;10.52;8.20;;;1.30;99.90;;;;;;5017277;28;20322;-83
2024/01/28 06:19:01;;;;;;;9.43;8.10;;;0.90;99.90;;;;;;5026429;28;20337;-83
2024/01/28 06:21:26;;;;;;;10.33;8.47;;;0.70;99.90;;;;;;5035204;28;20179;-84
2024/01/28 06:23:52;;;;;;;8.87;7.63;;;0.40;99.90;;;;;;5037826;28;20182;-83
2024/01/28 06:26:18;;;;;;;10.10;7.60;;;0.50;99.90;;;;;;5027864;28;20210;-83
2024/01/28 06:28:45;;;;;;;11.98;9.00;;;0.80;99.90;;;;;;5033925;28;20209;-82
2024/01/28 06:31:14;;;;;;;13.02;8.48;;;1.10;99.90;;;;;;5035908;28;20662;-84
2024/01/28 06:33:41;;;;;;;9.10;7.55;;;0.50;99.90;;;;;;5049042;28;20174;-84
2024/01/28 06:36:07;;;;;;;14.38;9.73;;;0.00;99.90;;;;;;5023412;28;20228;-83
2024/01/28 06:38:33;;;;;;;11.55;8.60;;;0.80;99.90;;;;;;5026178;28;20565;-83
2024/01/28 06:40:59;;;;;;;10.77;8.97;;;0.50;99.90;;;;;;5027325;28;20203;-83
2024/01/28 06:43:27;;;;;;;10.57;8.10;;;0.60;99.90;;;;;;5021734;28;20432;-82
2024/01/28 06:45:53;;;;;;;13.82;9.50;;;0.90;99.90;;;;;;5026424;28;20201;-83
2024/01/28 06:48:19;;;;;;;10.27;8.77;;;0.60;99.90;;;;;;5031443;28;20186;-83
2024/01/28 06:50:46;;;;;;;14.63;9.23;;;0.40;99.90;;;;;;5026644;28;20249;-84
2024/01/28 06:53:11;;;;;;;10.00;8.65;;;0.30;99.90;;;;;;5060904;28;20186;-84
2024/01/28 06:55:37;;;;;;;15.10;9.73;;;0.50;99.90;;;;;;5040356;28;20213;-83
2024/01/28 06:58:02;;;;;;;13.40;9.70;;;0.50;99.90;;;;;;5018532;28;20189;-83
2024/01/28 07:00:28;;;;;;;11.20;10.10;;;0.50;99.90;;;;;;5028715;28;20218;-84
2024/01/28 07:02:55;;;;;;;12.37;9.47;;;0.60;99.90;;;;;;5016475;28;20194;-83
2024/01/28 07:05:21;;;;;;;11.27;9.95;;;0.20;99.90;;;;;;5028966;28;20202;-85
2024/01/28 07:07:47;;;;;;;14.68;8.80;;;1.00;99.90;;;;;;5030825;28;20201;-84
2024/01/28 07:10:13;;;;;;;15.37;10.50;;;0.60;99.90;;;;;;5028481;28;20186;-83
2024/01/28 07:12:39;;;;;;;12.70;9.77;;;0.80;99.90;;;;;;5036635;28;20182;-83
2024/01/28 07:15:05;;;;;;;11.93;9.93;;;1.30;99.90;;;;;;5026136;28;20256;-81
2024/01/28 07:17:33;;;;;;;12.95;9.77;;;0.80;99.90;;;;;;5024162;28;20260;-83
2024/01/28 07:19:58;;;;;;;10.48;8.98;;;0.40;99.90;;;;;;5054534;28;20237;-87
2024/01/28 07:22:24;;;;;;;12.88;9.25;;;0.60;99.90;;;;;;5040184;28;20198;-86
2024/01/28 07:24:51;;;;;;;12.60;11.30;;;0.60;99.90;;;;;;4999961;28;20332;-87
2024/01/28 07:27:17;;;;;;;14.05;10.02;;;0.70;99.90;;;;;;5008209;28;20183;-85
2024/01/28 07:29:43;;;;;;;14.70;9.37;;;0.80;99.90;;;;;;5016774;28;20209;-86
2024/01/28 07:32:13;;;;;;;9.10;8.02;;;0.90;99.90;;;;;;5043703;28;20190;-85
2024/01/28 07:34:41;;;;;;;11.52;9.50;;;0.80;99.90;;;;;;5021923;28;20202;-82
2024/01/28 07:37:06;;;;;;;12.25;8.40;;;0.90;99.90;;;;;;5022775;28;20760;-84
2024/01/28 07:39:32;;;;;;;11.83;9.67;;;1.20;99.90;;;;;;5040939;28;20354;-82
2024/01/28 07:42:00;;;;;;;12.83;9.27;;;0.60;99.90;;;;;;5017941;28;20541;-82
2024/01/28 07:44:26;;;;;;;13.15;9.25;;;0.90;99.90;;;;;;5023040;28;20206;-81
2024/01/28 07:46:53;;;;;;;10.93;8.13;;;0.80;99.90;;;;;;5016839;28;20183;-82
2024/01/28 07:49:19;;;;;;;13.40;9.48;;;0.90;99.90;;;;;;5018009;28;20194;-81
2024/01/28 07:51:45;;;;;;;13.57;9.30;;;0.10;99.90;;;;;;5034853;28;20242;-81
2024/01/28 07:54:11;;;;;;;15.83;9.63;;;0.80;99.90;;;;;;5039532;28;20193;-82
2024/01/28 07:56:37;;;;;;;10.23;8.25;;;0.60;99.90;;;;;;5050798;28;20217;-82
2024/01/28 07:59:02;;;;;;;11.10;8.83;;;0.80;99.90;;;;;;5023759;28;20186;-85
2024/01/28 08:01:30;;;;;;;10.53;9.10;;;0.70;99.90;;;;;;5021263;28;20269;-83
2024/01/28 08:03:56;;;;;;;13.27;9.77;;;0.70;99.90;;;;;;5004330;28;20190;-83
2024/01/28 08:06:22;;;;;;;17.00;10.38;;;0.90;99.90;;;;;;5021396;28;20210;-82
2024/01/28 08:08:48;;;;;;;10.88;9.65;;;1.20;99.90;;;;;;5020880;28;20184;-83
2024/01/28 08:11:14;;;;;;;14.43;11.13;;;0.70;99.90;;;;;;5016572;28;20190;-83
2024/01/28 08:13:41;;;;;;;11.73;9.73;;;1.10;99.90;;;;;;5012544;28;20325;-83
2024/01/28 08:16:07;;;;;;;13.75;10.43;;;1.00;99.90;;;;;;5017709;28;20459;-84
2024/01/28 08:18:32;;;;;;;15.07;10.50;;;1.40;99.90;;;;;;5018648;28;20201;-84
2024/01/28 08:20:58;;;;;;;12.77;10.90;;;1.00;99.90;;;;;;5011817;28;20215;-85
2024/01/28 08:23:25;;;;;;;14.17;10.20;;;1.30;99.90;;;;;;5013846;28;20182;-88
2024/01/28 08:25:51;;;;;;;15.75;10.43;;;1.10;99.90;;;;;;4999034;28;20290;-83
2024/01/28 08:28:17;;;;;;;11.03;9.30;;;1.30;99.90;;;;;;5014473;28;20207;-82
2024/01/28 08:30:43;;;;;;;15.50;10.10;;;1.20;99.90;;;;;;5031104;28;20499;-82
2024/01/28 08:33:08;;;;;;;13.05;9.98;;;0.70;99.90;;;;;;5041728;28;20186;-83
2024/01/28 08:35:34;;;;;;;10.70;9.20;;;1.50;99.90;;;;;;5032471;28;20284;-84
2024/01/28 08:37:59;;;;;;;14.37;12.87;;;1.70;99.90;;;;;;5028003;28;20187;-84
2024/01/28 08:40:25;;;;;;;13.90;11.43;;;1.80;99.90;;;;;;5023468;28;20210;-86
2024/01/28 08:42:51;;;;;;;14.27;11.53;;;1.80;99.90;;;;;;5016746;28;20212;-81
2024/01/28 08:45:17;;;;;;;14.30;11.30;;;1.50;99.90;;;;;;5019520;28;20198;-85
2024/01/28 08:47:42;;;;;;;13.50;11.03;;;1.80;99.90;;;;;;5058021;28;20183;-83
2024/01/28 08:50:09;;;;;;;12.90;11.20;;;2.20;99.90;;;;;;5016280;28;20429;-80
2024/01/28 08:52:34;;;;;;;14.02;10.65;;;2.10;99.90;;;;;;5019372;28;20194;-81
2024/01/28 08:55:00;;;;;;;11.50;9.80;;;1.80;99.90;;;;;;5046484;28;20214;-81
2024/01/28 08:57:25;;;;;;;12.50;10.07;;;2.50;99.90;;;;;;5034690;28;20186;-80
2024/01/28 08:59:51;;;;;;;13.37;9.70;;;2.60;99.90;;;;;;5034069;28;20310;-80
2024/01/28 09:02:16;;;;;;;11.60;10.40;;;2.80;99.90;;;;;;5051357;28;20184;-80
2024/01/28 09:04:42;;;;;;;10.93;9.23;;;2.70;99.90;;;;;;5025776;28;20203;-81
2024/01/28 09:07:07;;;;;;;14.30;10.10;;;2.80;99.90;;;;;;5021489;28;20314;-82
2024/01/28 09:09:33;;;;;;;10.30;9.30;;;3.00;99.90;;;;;;5011255;28;20261;-82
2024/01/28 09:11:59;;;;;;;10.97;9.70;;;3.20;99.90;;;;;;5024731;28;20195;-82
2024/01/28 09:14:26;;;;;;;11.43;10.23;;;3.00;99.90;;;;;;5027377;28;20186;-81
2024/01/28 09:16:52;;;;;;;10.52;9.63;;;2.40;99.90;;;;;;5022197;28;20984;-80
2024/01/28 09:19:18;;;;;;;12.33;10.07;;;3.60;99.90;;;;;;5016601;28;20204;-79
2024/01/28 09:21:43;;;;;;;11.00;9.20;;;3.80;99.90;;;;;;5016364;28;20181;-82
2024/01/28 09:24:09;;;;;;;11.47;9.37;;;7.30;99.90;;;;;;5022984;28;20445;-80
2024/01/28 09:26:34;;;;;;;9.70;8.57;;;7.40;99.90;;;;;;5015914;28;20228;-81
2024/01/28 09:29:00;;;;;;;8.77;7.87;;;9.20;99.90;;;;;;5012370;28;20981;-81
2024/01/28 09:31:26;;;;;;;8.80;7.90;;;10.10;99.90;;;;;;5023333;28;20181;-81
2024/01/28 09:33:51;;;;;;;7.63;6.93;;;11.60;97.10;;;;;;5035536;28;20444;-82
2024/01/28 09:36:17;;;;;;;8.73;7.30;;;11.90;94.60;;;;;;5037706;28;20229;-82
2024/01/28 09:38:42;;;;;;;8.53;7.63;;;13.20;92.00;;;;;;5024418;28;20178;-82
2024/01/28 09:41:39;;;;;;;11.77;7.73;;;14.10;90.00;;;;;;5059146;28;20202;-82
2024/01/28 09:44:05;;;;;;;8.43;7.53;;;13.60;86.20;;;;;;5020470;28;20174;-81
2024/01/28 09:46:31;;;;;;;9.83;8.17;;;12.60;87.40;;;;;;5021450;28;20189;-81
2024/01/28 09:48:59;;;;;;;8.70;7.90;;;12.30;87.60;;;;;;5058340;28;20196;-81
2024/01/28 09:51:24;;;;;;;10.48;8.40;;;13.20;89.50;;;;;;5023922;28;20194;-81
2024/01/28 09:53:50;;;;;;;8.37;7.50;;;12.90;88.40;;;;;;5026082;28;20189;-86
2024/01/28 09:56:16;;;;;;;9.70;8.30;;;13.20;89.80;;;;;;5029513;28;20220;-86
2024/01/28 09:58:43;;;;;;;8.60;7.80;;;14.00;88.00;;;;;;5036321;28;20182;-86
2024/01/28 10:01:13;;;;;;;8.98;7.53;;;15.20;83.20;;;;;;5048954;28;20290;-86
2024/01/28 10:03:38;;;;;;;8.60;7.70;;;15.70;80.10;;;;;;5020271;28;20568;-86
2024/01/28 10:06:04;;;;;;;9.00;8.07;;;15.70;80.00;;;;;;5020135;28;20206;-86
2024/01/28 10:08:30;;;;;;;9.43;8.40;;;16.00;78.90;;;;;;5016786;28;20269;-86
2024/01/28 10:10:58;;;;;;;9.30;8.40;;;16.80;77.70;;;;;;5013280;28;20202;-86
2024/01/28 10:13:25;;;;;;;9.38;8.40;;;17.00;73.60;;;;;;5022947;28;20182;-86
2024/01/28 10:15:58;;;;;;;9.38;8.45;;;17.60;72.20;;;;;;5016325;28;20261;-86
2024/01/28 10:18:24;;;;;;;9.02;8.13;;;17.00;71.10;;;;;;5013746;28;20205;-86
2024/01/28 10:20:50;;;;;;;11.48;10.40;;;16.00;73.40;;;;;;5048986;28;20202;-86
2024/01/28 10:23:17;;;;;;;9.87;8.80;;;14.90;76.70;;;;;;5013383;28;20562;-85
2024/01/28 10:25:43;;;;;;;8.88;7.80;;;14.50;79.40;;;;;;5019601;28;20538;-85
2024/01/28 10:28:09;;;;;;;9.63;8.77;;;14.50;78.80;;;;;;5015607;28;20646;-86
2024/01/28 10:30:35;;;;;;;9.10;8.20;;;14.10;78.80;;;;;;5014694;28;20190;-86
2024/01/28 10:33:00;;;;;;;9.17;8.20;;;13.40;80.70;;;;;;5016629;28;20441;-85
2024/01/28 10:35:26;;;;;;;9.53;8.73;;;12.90;83.50;;;;;;5015760;28;20268;-85
2024/01/28 10:37:55;;;;;;;10.20;9.30;;;13.90;84.70;;;;;;5011150;28;20194;-86
2024/01/28 10:40:24;;;;;;;9.82;8.02;;;15.00;81.10;;;;;;5012133;28;20235;-82
2024/01/28 10:42:55;;;;;;;9.98;8.50;;;15.90;76.80;;;;;;5016787;28;20232;-81
2024/01/28 10:45:23;;;;;;;9.30;8.40;;;17.40;72.50;;;;;;5009049;28;20206;-81
2024/01/28 10:47:53;;;;;;;10.25;9.27;;;18.40;69.80;;;;;;5019703;28;20184;-81
2024/01/28 10:50:20;;;;;;;9.10;8.30;;;19.00;67.00;;;;;;5025028;28;20595;-82
2024/01/28 10:52:47;;;;;;;8.93;8.05;;;19.20;64.50;;;;;;5017085;28;20185;-82
2024/01/28 10:55:14;;;;;;;9.18;8.18;;;19.20;61.80;;;;;;5012179;28;20207;-82
2024/01/28 10:57:41;;;;;;;10.15;9.30;;;20.10;62.60;;;;;;5026832;28;20208;-82
2024/01/28 11:00:10;;;;;;;12.63;9.02;;;19.70;59.80;;;;;;5029733;28;20214;-82
2024/01/28 11:02:37;;;;;;;10.23;8.80;;;19.70;60.50;;;;;;5021423;28;20193;-82
2024/01/28 11:05:03;;;;;;;8.73;7.97;;;19.60;59.30;;;;;;5036298;28;20202;-81
2024/01/28 11:07:30;;;;;;;11.73;7.95;;;19.80;59.20;;;;;;5018788;28;20278;-82
2024/01/28 11:09:57;;;;;;;8.77;7.67;;;21.10;58.70;;;;;;5017690;28;20193;-82
2024/01/28 11:12:23;;;;;;;8.57;7.77;;;20.40;58.30;;;;;;5049416;28;20955;-82
2024/01/28 11:14:51;;;;;;;8.13;7.43;;;20.70;58.00;;;;;;5029359;28;20461;-82
2024/01/28 11:17:17;;;;;;;8.18;7.43;;;19.40;58.90;;;;;;5023150;28;20460;-85
2024/01/28 11:19:43;;;;;;;8.67;7.87;;;18.10;59.10;;;;;;5011987;28;20210;-82
2024/01/28 11:22:16;;;;;;;9.05;8.25;;;16.20;61.60;;;;;;5036131;28;20547;-83
2024/01/28 11:24:56;;;;;;;8.88;7.97;;;15.40;64.70;;;;;;5013605;28;20251;-82
2024/01/28 11:27:22;;;;;;;8.88;8.07;;;15.70;65.50;;;;;;5052135;28;20651;-84
2024/01/28 11:30:12;;;;;;;8.03;7.33;;;15.90;65.10;;;;;;5008966;28;20183;-82
2024/01/28 11:32:38;;;;;;;8.93;8.07;;;15.80;65.30;;;;;;5049235;28;20439;-82
2024/01/28 11:35:04;;;;;;;11.07;8.40;;;15.50;65.80;;;;;;5013871;28;20649;-83
2024/01/28 11:37:30;;;;;;;8.30;7.30;;;14.60;66.90;;;;;;5002192;28;20223;-83
2024/01/28 11:40:09;;;;;;;8.13;7.43;;;14.00;68.50;;;;;;5012331;28;20216;-83
2024/01/28 11:42:35;;;;;;;9.18;8.27;;;14.80;69.40;;;;;;5018487;28;20182;-83
2024/01/28 11:45:00;;;;;;;10.77;9.00;;;15.90;68.90;;;;;;5013032;28;20209;-83
2024/01/28 11:47:29;;;;;;;8.60;7.80;;;16.30;66.50;;;;;;5024941;28;20186;-83
2024/01/28 11:49:54;;;;;;;8.40;7.50;;;16.70;64.10;;;;;;5027947;28;20220;-83
2024/01/28 11:52:20;;;;;;;7.73;7.03;;;17.30;63.20;;;;;;5045544;28;20190;-83
2024/01/28 11:54:47;;;;;;;7.13;6.57;;;16.70;62.50;;;;;;5042153;28;20231;-83
2024/01/28 11:57:12;;;;;;;9.70;8.85;;;16.00;62.50;;;;;;5041778;28;20189;-83
2024/01/28 11:59:38;;;;;;;11.47;8.97;;;16.40;64.90;;;;;;5033012;28;20285;-83
2024/01/28 12:02:05;;;;;;;11.87;10.67;;;15.20;65.00;;;;;;5036264;28;20183;-83
2024/01/28 12:04:31;;;;;;;9.90;9.00;;;15.10;65.60;;;;;;5027704;28;20580;-83
2024/01/28 12:06:57;;;;;;;9.80;8.85;;;14.80;66.90;;;;;;5017147;28;20234;-83
2024/01/28 12:09:22;;;;;;;9.83;8.13;;;14.30;68.50;;;;;;5013745;28;20190;-83
2024/01/28 12:11:48;;;;;;;8.63;7.83;;;13.80;69.30;;;;;;5014526;28;20183;-84
2024/01/28 12:14:14;;;;;;;7.90;7.10;;;13.90;71.40;;;;;;5015651;28;20174;-83
2024/01/28 12:16:39;;;;;;;8.10;7.40;;;13.80;71.50;;;;;;5034765;28;20186;-83
2024/01/28 12:19:10;;;;;;;10.47;9.30;;;13.80;71.70;;;;;;5016434;28;20196;-84
2024/01/28 12:21:38;;;;;;;10.25;8.80;;;13.40;74.00;;;;;;5038024;28;21357;-83
2024/01/28 12:24:04;;;;;;;8.70;7.90;;;13.20;75.70;;;;;;5039426;28;20197;-83
2024/01/28 12:26:33;;;;;;;8.13;7.32;;;13.00;75.30;;;;;;5023644;28;20269;-83
2024/01/28 12:29:00;;;;;;;10.63;8.43;;;13.00;76.20;;;;;;5027969;28;20686;-83
2024/01/28 12:31:26;;;;;;;10.00;9.00;;;13.20;78.10;;;;;;5043334;28;20198;-83
2024/01/28 12:33:51;;;;;;;8.20;7.50;;;12.90;78.90;;;;;;5020135;28;20193;-83
2024/01/28 12:36:17;;;;;;;10.10;8.60;;;12.40;78.90;;;;;;5048986;28;20218;-83
2024/01/28 12:38:43;;;;;;;7.90;7.13;;;12.60;78.50;;;;;;5016568;28;20569;-83
2024/01/28 12:41:10;;;;;;;8.90;7.00;;;13.10;78.80;;;;;;5022423;28;20220;-83